KPLR/PLR METAR and TAF weather

Enter ICAO airport designator
Station Type Date Time Source
KPLR METAR 2021/03/06 01:35 UTC NOAA

KPLR 060135Z AUTO 02007KT 10SM CLR 12/M07 A3010 RMK A01


Station Type Date Time Source
KPLR Decoded METAR 2021/03/06 01:35 UTC NOAA

Station name not available
Mar 05, 2021 - 08:35 PM EST / 2021.03.06 0135 UTC
Wind: from the NNE (020 degrees) at 8 MPH (7 KT):0
Visibility: 10 mile(s):0
Sky conditions: clear
Temperature: 53 F (12 C)
Dew Point: 19 F (-7 C)
Relative Humidity: 25%
Pressure (altimeter): 30.1 in. Hg (1019 hPa)
ob: KPLR 060135Z AUTO 02007KT 10SM CLR 12/M07 A3010 RMK A01
cycle: 1

Station Type Date Time Source
KPLR TAF UTC NOAA

Error!

Example: see airport list